Time;durP1;ratioP1;P1;durP2;ratioP2;P2;SDS_P1;SDS_P2;PMS_P1;PMS_P2;Temp;Humidity;BMP_temperature;BMP_pressure;BME280_temperature;BME280_humidity;BME280_pressure;Samples;Min_cycle;Max_cycle;Signal;HPM_P1;HPM_P2
2022/03/03 00:00:10;;;;;;;19.27;10.13;;;1.10;99.90;;;;;;4918069;29;20055;-77
2022/03/03 00:02:36;;;;;;;18.47;10.13;;;1.00;99.90;;;;;;4919139;29;20036;-78
2022/03/03 00:05:03;;;;;;;19.07;9.43;;;1.00;99.90;;;;;;4902816;29;20111;-77
2022/03/03 00:07:29;;;;;;;19.50;9.47;;;0.90;99.90;;;;;;4901984;29;20430;-78
2022/03/03 00:09:54;;;;;;;19.93;9.73;;;0.80;99.90;;;;;;4918194;29;20040;-77
2022/03/03 00:12:20;;;;;;;18.53;8.77;;;0.80;99.90;;;;;;4917483;29;20028;-78
2022/03/03 00:14:46;;;;;;;19.93;9.97;;;0.80;99.90;;;;;;4902173;29;20091;-77
2022/03/03 00:17:12;;;;;;;21.17;9.57;;;0.80;99.90;;;;;;4901752;29;20492;-76
2022/03/03 00:19:38;;;;;;;22.27;9.27;;;0.80;99.90;;;;;;4901743;29;20134;-76
2022/03/03 00:22:04;;;;;;;18.97;9.57;;;0.90;99.90;;;;;;4901906;29;20498;-76
2022/03/03 00:24:29;;;;;;;18.47;8.90;;;0.80;99.90;;;;;;4901581;29;20069;-78
2022/03/03 00:26:55;;;;;;;20.43;9.83;;;0.80;99.90;;;;;;4919101;29;20143;-77
2022/03/03 00:29:21;;;;;;;20.03;10.10;;;0.70;99.90;;;;;;4918083;29;20136;-76
2022/03/03 00:31:47;;;;;;;15.87;9.43;;;0.70;99.90;;;;;;4917619;29;20033;-77
2022/03/03 00:34:13;;;;;;;18.10;9.33;;;0.70;99.90;;;;;;4917912;29;20111;-77
2022/03/03 00:36:40;;;;;;;19.73;9.77;;;0.70;99.90;;;;;;4918404;29;20107;-77
2022/03/03 00:39:06;;;;;;;18.53;9.10;;;0.60;99.90;;;;;;4917501;29;20417;-76
2022/03/03 00:41:32;;;;;;;21.60;10.77;;;0.50;99.90;;;;;;4917829;29;20028;-76
2022/03/03 00:43:57;;;;;;;21.50;9.73;;;0.50;99.90;;;;;;4917372;29;20035;-76
2022/03/03 00:46:25;;;;;;;23.23;10.50;;;0.50;99.90;;;;;;4916705;29;20043;-76
2022/03/03 00:48:57;;;;;;;22.80;10.73;;;0.50;99.90;;;;;;4917368;29;20040;-77
2022/03/03 00:51:22;;;;;;;20.77;10.27;;;0.60;99.90;;;;;;4916940;29;20028;-77
2022/03/03 00:53:50;;;;;;;21.80;9.93;;;0.50;99.90;;;;;;4917031;29;20070;-77
2022/03/03 00:56:16;;;;;;;22.30;10.00;;;0.60;99.90;;;;;;4917625;29;20062;-76
2022/03/03 00:58:41;;;;;;;20.37;10.07;;;0.70;99.90;;;;;;4916724;29;20056;-76
2022/03/03 01:01:07;;;;;;;19.57;9.70;;;0.60;99.90;;;;;;4916981;29;20076;-75
2022/03/03 01:03:33;;;;;;;23.13;10.30;;;0.50;99.90;;;;;;4916410;29;20055;-77
2022/03/03 01:05:58;;;;;;;22.53;11.67;;;0.50;99.90;;;;;;4917681;29;20503;-75
2022/03/03 01:08:24;;;;;;;25.73;11.03;;;0.60;99.90;;;;;;4916063;29;20474;-76
2022/03/03 01:10:50;;;;;;;23.23;11.40;;;0.70;99.90;;;;;;4916502;29;20071;-75
2022/03/03 01:13:16;;;;;;;22.93;10.97;;;0.80;99.90;;;;;;4916111;29;20028;-76
2022/03/03 01:15:43;;;;;;;19.30;10.60;;;0.70;99.90;;;;;;4900676;29;20063;-76
2022/03/03 01:18:08;;;;;;;22.47;10.80;;;0.80;99.90;;;;;;4916409;29;20480;-74
2022/03/03 01:20:34;;;;;;;20.57;10.80;;;0.80;99.90;;;;;;4915523;29;20043;-74
2022/03/03 01:23:00;;;;;;;21.03;10.30;;;0.80;99.90;;;;;;4916315;29;20028;-75
2022/03/03 01:25:25;;;;;;;24.90;11.07;;;0.90;99.90;;;;;;4918046;29;20059;-76
2022/03/03 01:27:51;;;;;;;23.00;11.13;;;0.80;99.90;;;;;;4936036;29;20388;-76
2022/03/03 01:30:17;;;;;;;22.30;11.57;;;0.80;99.90;;;;;;4935896;29;20087;-77
2022/03/03 01:32:42;;;;;;;22.20;11.60;;;0.70;99.90;;;;;;4936807;29;20032;-76
2022/03/03 01:35:08;;;;;;;22.53;11.33;;;0.80;99.90;;;;;;4936545;29;20028;-75
2022/03/03 01:37:34;;;;;;;22.53;10.23;;;0.80;99.90;;;;;;4936075;29;20019;-75
2022/03/03 01:40:00;;;;;;;22.17;11.57;;;0.90;99.90;;;;;;4919487;29;20062;-76
2022/03/03 01:42:26;;;;;;;23.83;11.73;;;0.90;99.90;;;;;;4935833;29;20051;-75
2022/03/03 01:44:52;;;;;;;25.17;11.47;;;0.80;99.90;;;;;;4919180;29;20067;-75
2022/03/03 01:47:21;;;;;;;18.37;10.83;;;0.80;99.90;;;;;;4918688;29;20028;-75
2022/03/03 01:49:48;;;;;;;22.90;11.37;;;0.80;99.90;;;;;;4919217;29;20036;-75
2022/03/03 01:52:13;;;;;;;23.07;11.80;;;0.80;99.90;;;;;;4936032;29;20039;-75
2022/03/03 01:54:40;;;;;;;26.53;12.03;;;0.70;99.90;;;;;;4918567;29;20024;-75
2022/03/03 01:57:07;;;;;;;21.93;11.63;;;0.60;99.90;;;;;;4918969;29;20054;-74
2022/03/03 01:59:33;;;;;;;24.33;11.03;;;0.60;99.90;;;;;;4934125;29;20122;-75
2022/03/03 02:02:00;;;;;;;19.87;10.53;;;0.60;99.90;;;;;;4919012;29;20035;-75
2022/03/03 02:04:25;;;;;;;22.37;12.07;;;0.70;99.90;;;;;;4918389;29;20027;-75
2022/03/03 02:06:51;;;;;;;22.97;11.57;;;0.40;99.90;;;;;;4935956;29;20388;-75
2022/03/03 02:09:17;;;;;;;20.03;10.83;;;0.30;99.90;;;;;;4918849;29;20036;-75
2022/03/03 02:11:49;;;;;;;22.60;11.67;;;0.30;99.90;;;;;;4918485;29;20384;-75
2022/03/03 02:14:15;;;;;;;24.90;11.88;;;0.20;99.90;;;;;;4918824;29;20492;-75
2022/03/03 02:16:40;;;;;;;20.77;10.33;;;0.10;99.90;;;;;;4935184;29;20032;-75
2022/03/03 02:19:06;;;;;;;22.87;11.67;;;0.10;99.90;;;;;;4918738;29;20495;-74
2022/03/03 02:21:32;;;;;;;20.03;10.17;;;0.20;99.90;;;;;;4935103;29;20090;-75
2022/03/03 02:23:58;;;;;;;25.70;11.27;;;0.20;99.90;;;;;;4918604;29;20047;-75
2022/03/03 02:26:24;;;;;;;22.13;11.17;;;0.10;99.90;;;;;;4918067;29;20028;-74
2022/03/03 02:28:52;;;;;;;24.60;11.53;;;0.00;99.90;;;;;;4934979;29;20481;-75
2022/03/03 02:31:18;;;;;;;25.80;10.47;;;-0.10;99.90;;;;;;4918612;29;20118;-75
2022/03/03 02:33:44;;;;;;;23.60;10.73;;;-0.10;99.90;;;;;;4917813;29;20067;-74
2022/03/03 02:36:27;;;;;;;24.07;11.47;;;0.00;99.90;;;;;;4918456;29;20024;-74
2022/03/03 02:38:55;;;;;;;21.30;11.07;;;0.00;99.90;;;;;;4918566;29;20040;-74
2022/03/03 02:41:23;;;;;;;22.83;10.67;;;-0.10;99.90;;;;;;4917713;29;20028;-76
2022/03/03 02:43:49;;;;;;;23.73;10.57;;;0.00;99.90;;;;;;4935670;29;20031;-76
2022/03/03 02:46:15;;;;;;;22.83;11.10;;;0.00;99.90;;;;;;4918414;29;20042;-75
2022/03/03 02:48:40;;;;;;;28.03;11.53;;;0.10;99.90;;;;;;4934715;29;20388;-74
2022/03/03 02:51:07;;;;;;;23.17;10.80;;;0.10;99.90;;;;;;4918319;29;20072;-75
2022/03/03 02:53:33;;;;;;;21.30;11.43;;;0.10;99.90;;;;;;4933542;29;20066;-75
2022/03/03 02:55:58;;;;;;;21.90;10.27;;;0.10;99.90;;;;;;4934283;29;20088;-75
2022/03/03 02:58:24;;;;;;;23.70;11.17;;;0.00;99.90;;;;;;4935247;29;20405;-76
2022/03/03 03:00:50;;;;;;;18.93;10.20;;;-0.10;99.90;;;;;;4935823;29;20468;-75
2022/03/03 03:03:18;;;;;;;23.80;11.13;;;-0.10;99.90;;;;;;4918524;29;20114;-77
2022/03/03 03:05:44;;;;;;;24.33;12.20;;;-0.10;99.90;;;;;;4917931;29;20032;-77
2022/03/03 03:08:10;;;;;;;24.07;11.40;;;0.00;99.90;;;;;;4934258;29;20038;-77
2022/03/03 03:10:36;;;;;;;25.07;12.17;;;0.00;99.90;;;;;;4917760;29;20048;-77
2022/03/03 03:13:02;;;;;;;27.93;12.57;;;0.00;99.90;;;;;;4934456;29;20040;-77
2022/03/03 03:15:28;;;;;;;26.73;12.47;;;0.00;99.90;;;;;;4934572;29;20035;-77
2022/03/03 03:17:53;;;;;;;29.07;12.53;;;0.10;99.90;;;;;;4933932;29;20087;-77
2022/03/03 03:20:20;;;;;;;23.57;11.93;;;0.10;99.90;;;;;;4918249;29;20031;-77
2022/03/03 03:22:46;;;;;;;25.13;12.20;;;0.10;99.90;;;;;;4917656;29;20027;-77
2022/03/03 03:25:13;;;;;;;27.10;12.33;;;0.10;99.90;;;;;;4935394;29;20039;-77
2022/03/03 03:27:41;;;;;;;27.30;12.20;;;0.10;99.90;;;;;;4934513;29;20039;-77
2022/03/03 03:30:09;;;;;;;24.30;11.30;;;0.10;99.90;;;;;;4934643;29;20072;-77
2022/03/03 03:32:35;;;;;;;30.83;12.40;;;0.10;99.90;;;;;;4933363;29;20055;-77
2022/03/03 03:35:01;;;;;;;24.53;11.50;;;0.00;99.90;;;;;;4918067;29;20027;-77
2022/03/03 03:37:27;;;;;;;25.93;11.87;;;-0.10;99.90;;;;;;4917354;29;20035;-77
2022/03/03 03:39:53;;;;;;;28.03;12.43;;;0.00;99.90;;;;;;4917731;29;20028;-77
2022/03/03 03:42:19;;;;;;;25.27;11.63;;;-0.10;99.90;;;;;;4935071;29;20114;-77
2022/03/03 03:44:44;;;;;;;27.63;11.93;;;-0.10;99.90;;;;;;4934617;29;20063;-77
2022/03/03 03:47:12;;;;;;;23.23;11.60;;;-0.20;99.90;;;;;;4918211;29;20032;-77
2022/03/03 03:49:38;;;;;;;27.47;11.33;;;-0.20;99.90;;;;;;4917533;29;20284;-77
2022/03/03 03:52:04;;;;;;;31.67;12.57;;;-0.30;99.90;;;;;;4936597;29;20059;-77
2022/03/03 03:54:29;;;;;;;22.10;11.67;;;-0.30;99.90;;;;;;4920961;29;20379;-77
2022/03/03 03:56:55;;;;;;;25.60;11.67;;;-0.40;99.90;;;;;;4938386;29;20031;-77
2022/03/03 03:59:21;;;;;;;23.20;11.07;;;-0.50;99.90;;;;;;4938134;29;20039;-77
2022/03/03 04:01:46;;;;;;;22.77;10.57;;;-0.50;99.90;;;;;;4920527;29;20472;-77
2022/03/03 04:04:12;;;;;;;22.87;11.43;;;-0.60;99.90;;;;;;4921290;29;20381;-78
2022/03/03 04:06:38;;;;;;;22.90;10.90;;;-0.60;99.90;;;;;;4920387;29;20213;-77
2022/03/03 04:09:04;;;;;;;21.47;10.53;;;-0.60;99.90;;;;;;4921002;29;20040;-77
2022/03/03 04:11:30;;;;;;;22.67;11.27;;;-0.60;99.90;;;;;;4937607;29;20103;-77
2022/03/03 04:13:59;;;;;;;23.83;10.73;;;-0.60;99.90;;;;;;4921012;29;20473;-77
2022/03/03 04:16:25;;;;;;;25.27;11.43;;;-0.60;99.90;;;;;;4921206;29;20028;-77
2022/03/03 04:18:51;;;;;;;22.77;11.07;;;-0.50;99.90;;;;;;4937630;29;20028;-76
2022/03/03 04:21:17;;;;;;;23.50;11.37;;;-0.50;99.90;;;;;;4920857;29;20028;-75
2022/03/03 04:23:43;;;;;;;25.33;11.07;;;-0.60;99.90;;;;;;4937207;29;20103;-77
2022/03/03 04:26:09;;;;;;;23.83;11.07;;;-0.60;99.90;;;;;;4920814;29;20038;-76
2022/03/03 04:28:35;;;;;;;26.07;10.87;;;-0.70;99.90;;;;;;4919924;29;20071;-77
2022/03/03 04:31:00;;;;;;;26.20;10.77;;;-0.70;99.90;;;;;;4920762;29;20028;-77
2022/03/03 04:33:26;;;;;;;24.00;10.60;;;-0.80;99.90;;;;;;4937378;29;20032;-76
2022/03/03 04:35:52;;;;;;;23.33;10.77;;;-0.80;99.90;;;;;;4920650;29;20032;-77
2022/03/03 04:38:17;;;;;;;23.87;10.50;;;-0.80;99.90;;;;;;4920573;29;20392;-76
2022/03/03 04:40:43;;;;;;;21.67;10.53;;;-0.70;99.90;;;;;;4919978;29;20024;-76
2022/03/03 04:43:09;;;;;;;23.70;11.40;;;-0.70;99.90;;;;;;4920496;29;20024;-76
2022/03/03 04:45:35;;;;;;;20.73;10.20;;;-0.80;99.90;;;;;;4920018;29;20024;-76
2022/03/03 04:48:00;;;;;;;20.60;11.00;;;-0.80;99.90;;;;;;4920210;29;20038;-76
2022/03/03 04:50:27;;;;;;;24.37;10.40;;;-0.90;99.90;;;;;;4920312;29;20419;-76
2022/03/03 04:52:53;;;;;;;20.20;10.40;;;-1.00;99.90;;;;;;4936929;29;20056;-76
2022/03/03 04:55:18;;;;;;;22.80;11.00;;;-1.00;99.90;;;;;;4937308;29;20400;-76
2022/03/03 04:57:44;;;;;;;23.13;10.60;;;-1.00;99.90;;;;;;4919635;29;20032;-76
2022/03/03 05:00:10;;;;;;;23.80;11.53;;;-1.00;99.90;;;;;;4937362;29;20060;-76
2022/03/03 05:02:36;;;;;;;22.43;10.77;;;-1.00;99.90;;;;;;4936452;29;20027;-76
2022/03/03 05:05:02;;;;;;;20.43;10.40;;;-1.00;99.90;;;;;;4937038;29;20078;-76
2022/03/03 05:07:28;;;;;;;19.70;10.20;;;-1.00;99.90;;;;;;4919967;29;20550;-75
2022/03/03 05:09:54;;;;;;;20.13;10.17;;;-0.90;99.90;;;;;;4936897;29;20042;-76
2022/03/03 05:12:19;;;;;;;22.30;11.30;;;-0.80;99.90;;;;;;4919836;29;20053;-76
2022/03/03 05:14:45;;;;;;;22.77;9.80;;;-0.90;99.90;;;;;;4919418;29;20072;-76
2022/03/03 05:17:11;;;;;;;21.80;10.57;;;-0.90;99.90;;;;;;4936982;29;20035;-76
2022/03/03 05:19:36;;;;;;;24.10;11.37;;;-1.00;99.90;;;;;;4919336;29;20193;-76
2022/03/03 05:22:02;;;;;;;20.77;10.27;;;-1.00;99.90;;;;;;4935535;29;20024;-76
2022/03/03 05:24:28;;;;;;;20.90;10.20;;;-0.90;99.90;;;;;;4936468;29;20426;-76
2022/03/03 05:26:53;;;;;;;21.30;11.30;;;-0.90;99.90;;;;;;4919094;29;20544;-76
2022/03/03 05:29:19;;;;;;;22.20;11.00;;;-0.90;99.90;;;;;;4919409;29;20146;-76
2022/03/03 05:31:45;;;;;;;18.63;10.20;;;-0.90;99.90;;;;;;4935797;29;20038;-77
2022/03/03 05:34:10;;;;;;;19.83;10.17;;;-0.80;99.90;;;;;;4936617;29;20047;-76
2022/03/03 05:36:41;;;;;;;28.10;12.53;;;-0.80;99.90;;;;;;4918987;29;20034;-76
2022/03/03 05:39:07;;;;;;;27.93;13.57;;;-0.80;99.90;;;;;;4936560;29;20036;-76
2022/03/03 05:41:34;;;;;;;28.00;12.93;;;-0.80;99.90;;;;;;4918903;29;20469;-75
2022/03/03 05:43:59;;;;;;;32.67;14.03;;;-0.70;99.90;;;;;;4919505;29;20028;-76
2022/03/03 05:46:25;;;;;;;27.63;13.40;;;-0.70;99.90;;;;;;4919093;29;20032;-76
2022/03/03 05:48:51;;;;;;;28.20;13.13;;;-0.60;99.90;;;;;;4918955;29;20047;-76
2022/03/03 05:51:20;;;;;;;26.23;12.83;;;-0.60;99.90;;;;;;4919530;29;20491;-76
2022/03/03 05:53:46;;;;;;;25.17;11.77;;;-0.60;99.90;;;;;;4918822;29;20118;-75
2022/03/03 05:56:14;;;;;;;25.43;13.13;;;-0.60;99.90;;;;;;4919056;29;20118;-75
2022/03/03 05:58:49;;;;;;;24.73;11.53;;;-0.70;99.90;;;;;;4918446;29;20036;-75
2022/03/03 06:01:16;;;;;;;21.73;11.90;;;-0.70;99.90;;;;;;4936044;29;20346;-75
2022/03/03 06:03:46;;;;;;;24.53;11.23;;;-0.80;99.90;;;;;;4935523;29;20027;-76
2022/03/03 06:06:16;;;;;;;21.60;10.93;;;-0.70;99.90;;;;;;4919211;29;20032;-75
2022/03/03 06:09:15;;;;;;;23.43;10.80;;;-0.70;99.90;;;;;;4935385;29;20111;-77
2022/03/03 06:12:10;;;;;;;23.23;11.33;;;-0.80;99.90;;;;;;4918514;29;20055;-76
2022/03/03 06:14:37;;;;;;;25.47;11.07;;;-0.80;99.90;;;;;;4918318;29;20122;-76
2022/03/03 06:17:04;;;;;;;23.67;10.57;;;-0.70;99.90;;;;;;4919070;29;20027;-76
2022/03/03 06:19:32;;;;;;;25.53;11.07;;;-0.70;99.90;;;;;;4918988;29;20063;-75
2022/03/03 06:21:58;;;;;;;20.33;10.53;;;-0.90;99.90;;;;;;4935687;29;20051;-76
2022/03/03 06:24:23;;;;;;;27.00;11.47;;;-0.90;99.90;;;;;;4918797;29;20469;-76
2022/03/03 06:26:49;;;;;;;23.70;12.10;;;-1.00;99.90;;;;;;4918449;29;20020;-77
2022/03/03 06:29:15;;;;;;;20.50;10.57;;;-1.00;99.90;;;;;;4918509;29;20056;-76
2022/03/03 06:31:41;;;;;;;19.97;10.53;;;-1.10;99.90;;;;;;4918508;29;20198;-76
2022/03/03 06:34:07;;;;;;;24.63;11.57;;;-1.10;99.90;;;;;;4935763;29;20107;-75
2022/03/03 06:36:33;;;;;;;24.57;11.80;;;-1.20;99.90;;;;;;4918649;29;20035;-76
2022/03/03 06:38:59;;;;;;;23.23;11.73;;;-1.30;99.90;;;;;;4934891;29;20162;-76
2022/03/03 06:41:26;;;;;;;21.40;11.10;;;-1.20;99.90;;;;;;4935657;29;20111;-76
2022/03/03 06:43:52;;;;;;;23.27;11.23;;;-1.20;99.90;;;;;;4935241;29;20028;-79
2022/03/03 06:46:18;;;;;;;24.20;12.23;;;-1.20;99.90;;;;;;4918853;29;20035;-76
2022/03/03 06:48:45;;;;;;;25.73;12.33;;;-1.20;99.90;;;;;;4918004;29;20071;-76
2022/03/03 06:51:15;;;;;;;22.90;11.47;;;-1.20;99.90;;;;;;4935528;29;20031;-76
2022/03/03 06:53:44;;;;;;;25.53;11.00;;;-1.20;99.90;;;;;;4934823;29;20101;-77
2022/03/03 06:56:12;;;;;;;26.27;12.90;;;-1.10;99.90;;;;;;4918642;29;20628;-76
2022/03/03 06:58:39;;;;;;;24.43;11.73;;;-1.10;99.90;;;;;;4917968;29;20051;-76
2022/03/03 07:01:08;;;;;;;23.73;11.47;;;-1.10;99.90;;;;;;4918705;29;20127;-76
2022/03/03 07:03:34;;;;;;;23.63;11.07;;;-1.10;99.90;;;;;;4918342;29;20417;-75
2022/03/03 07:06:04;;;;;;;22.50;10.67;;;-1.00;99.90;;;;;;4917677;29;20091;-76
2022/03/03 07:08:31;;;;;;;22.33;10.87;;;-1.00;99.90;;;;;;4934976;29;20087;-76
2022/03/03 07:10:57;;;;;;;22.87;10.77;;;-0.90;99.90;;;;;;4934706;29;20496;-76
2022/03/03 07:13:23;;;;;;;23.40;10.73;;;-0.90;99.90;;;;;;4918322;29;20036;-76
2022/03/03 07:15:52;;;;;;;26.70;11.17;;;-0.80;99.90;;;;;;4917903;29;20413;-76
2022/03/03 07:18:28;;;;;;;23.43;10.70;;;-0.80;99.90;;;;;;4918433;29;20039;-76
2022/03/03 07:21:05;;;;;;;24.67;11.03;;;-0.70;99.90;;;;;;4917882;29;20024;-77
2022/03/03 07:23:39;;;;;;;22.40;11.37;;;-0.70;99.90;;;;;;4918004;29;20032;-77
2022/03/03 07:26:10;;;;;;;23.43;12.03;;;-0.60;99.90;;;;;;4935425;29;20050;-77
2022/03/03 07:28:40;;;;;;;18.55;8.52;;;-0.60;99.90;;;;;;4921479;29;20063;-77
2022/03/03 07:31:07;;;;;;;25.20;11.13;;;-0.50;99.90;;;;;;4921839;29;20548;-77
2022/03/03 07:33:56;;;;;;;25.33;11.57;;;-0.50;99.90;;;;;;4921747;29;20032;-76
2022/03/03 07:36:32;;;;;;;25.20;11.27;;;-0.50;99.90;;;;;;4937529;29;20028;-76
2022/03/03 07:39:10;;;;;;;26.73;11.80;;;-0.50;99.90;;;;;;4936737;29;20126;-76
2022/03/03 07:41:36;;;;;;;25.27;11.10;;;-0.50;99.90;;;;;;4938527;29;20032;-77
2022/03/03 07:44:02;;;;;;;26.90;12.00;;;-0.40;99.90;;;;;;4937159;29;20040;-76
2022/03/03 07:46:28;;;;;;;23.73;10.87;;;-0.30;99.90;;;;;;4938819;29;20031;-77
2022/03/03 07:48:55;;;;;;;23.17;11.97;;;-0.30;99.90;;;;;;4936848;29;20086;-78
2022/03/03 07:51:22;;;;;;;27.00;11.87;;;-0.20;99.90;;;;;;4937654;29;20373;-77
2022/03/03 07:53:48;;;;;;;24.70;12.10;;;-0.20;99.90;;;;;;4937027;29;20487;-78
2022/03/03 07:56:43;;;;;;;22.33;11.23;;;-0.10;99.90;;;;;;4938566;29;20031;-77
2022/03/03 07:59:12;;;;;;;26.70;12.23;;;0.00;99.90;;;;;;4919845;29;20052;-77
2022/03/03 08:01:38;;;;;;;27.30;12.40;;;0.00;99.90;;;;;;4937427;29;20030;-77
2022/03/03 08:04:04;;;;;;;28.60;13.07;;;0.10;99.90;;;;;;4937237;29;20473;-77
2022/03/03 08:06:33;;;;;;;25.30;12.40;;;0.10;99.90;;;;;;4934048;29;20035;-77
2022/03/03 08:08:59;;;;;;;23.73;12.17;;;0.20;99.90;;;;;;4899883;29;20040;-76
2022/03/03 08:11:27;;;;;;;24.40;12.97;;;0.20;99.90;;;;;;4898932;29;20170;-76
2022/03/03 08:13:54;;;;;;;27.20;12.77;;;0.30;99.90;;;;;;4898450;29;20028;-76
2022/03/03 08:16:20;;;;;;;27.33;12.90;;;0.40;99.90;;;;;;4899037;29;20025;-76
2022/03/03 08:18:47;;;;;;;32.37;13.97;;;0.40;99.90;;;;;;4898348;29;20168;-77
2022/03/03 08:21:14;;;;;;;28.60;13.60;;;0.40;99.90;;;;;;4898858;29;20437;-77
2022/03/03 08:23:42;;;;;;;35.40;14.73;;;0.60;99.90;;;;;;4883349;29;20426;-77
2022/03/03 08:26:12;;;;;;;28.70;14.37;;;0.70;99.90;;;;;;4899174;29;20035;-78
2022/03/03 08:28:40;;;;;;;26.97;13.80;;;0.70;99.90;;;;;;4899983;29;20099;-77
2022/03/03 08:31:07;;;;;;;27.50;12.87;;;0.80;99.90;;;;;;4898659;29;20036;-77
2022/03/03 08:34:03;;;;;;;29.77;13.70;;;0.90;99.90;;;;;;4899104;29;20060;-77
2022/03/03 08:36:44;;;;;;;30.10;13.10;;;0.90;99.90;;;;;;4898945;29;20128;-77
2022/03/03 08:39:11;;;;;;;29.27;13.18;;;1.00;99.90;;;;;;4899624;29;20039;-77
2022/03/03 08:41:38;;;;;;;30.40;13.87;;;1.10;99.90;;;;;;4898876;29;20375;-77
2022/03/03 08:44:07;;;;;;;30.60;13.00;;;1.10;99.90;;;;;;4899175;29;20033;-77
2022/03/03 08:46:39;;;;;;;23.37;12.87;;;1.20;99.90;;;;;;4900118;29;20366;-77
2022/03/03 08:49:08;;;;;;;25.93;12.70;;;1.10;99.90;;;;;;4882502;29;20033;-77
2022/03/03 08:51:35;;;;;;;25.17;12.33;;;1.10;99.90;;;;;;4899705;29;20032;-77
2022/03/03 08:54:01;;;;;;;22.93;12.70;;;1.20;99.90;;;;;;4897987;29;20029;-77
2022/03/03 08:56:26;;;;;;;28.60;12.17;;;1.30;99.90;;;;;;4899575;29;20462;-77
2022/03/03 08:58:53;;;;;;;26.30;13.27;;;1.30;99.90;;;;;;4897675;29;20397;-77
2022/03/03 09:01:20;;;;;;;23.07;12.07;;;1.40;99.90;;;;;;4898969;29;20418;-76
2022/03/03 09:03:46;;;;;;;26.07;12.80;;;1.40;99.90;;;;;;4898578;29;20462;-76
2022/03/03 09:06:16;;;;;;;27.87;12.60;;;1.50;99.90;;;;;;4899194;29;20024;-76
2022/03/03 09:08:42;;;;;;;23.20;12.53;;;1.60;99.90;;;;;;4898796;29;20037;-76
2022/03/03 09:11:10;;;;;;;25.53;12.50;;;1.60;99.90;;;;;;4881675;29;20043;-76
2022/03/03 09:13:37;;;;;;;23.13;12.13;;;1.60;99.90;;;;;;4897739;29;20048;-76
2022/03/03 09:16:03;;;;;;;22.73;12.40;;;1.70;99.90;;;;;;4897440;29;20039;-76
2022/03/03 09:18:28;;;;;;;25.57;12.83;;;1.80;99.90;;;;;;4882329;29;20044;-76
2022/03/03 09:20:54;;;;;;;25.57;11.40;;;1.80;99.90;;;;;;4897160;29;20096;-76
2022/03/03 09:23:20;;;;;;;27.97;12.73;;;1.80;99.90;;;;;;4898376;29;20047;-75
2022/03/03 09:25:46;;;;;;;26.23;12.73;;;1.80;99.90;;;;;;4896484;29;20028;-75
2022/03/03 09:28:11;;;;;;;24.20;12.03;;;1.80;99.90;;;;;;4898222;29;20036;-75
2022/03/03 09:30:38;;;;;;;25.07;11.87;;;1.90;99.90;;;;;;4896533;29;20052;-75
2022/03/03 09:33:04;;;;;;;27.50;13.00;;;1.90;99.90;;;;;;4896385;29;20029;-76
2022/03/03 09:35:31;;;;;;;28.90;14.80;;;2.00;99.90;;;;;;4898274;29;20035;-76
2022/03/03 09:37:57;;;;;;;26.87;12.43;;;2.00;99.90;;;;;;4897802;29;20032;-76
2022/03/03 09:40:24;;;;;;;24.93;12.10;;;2.00;99.90;;;;;;4881372;29;20060;-76
2022/03/03 09:42:58;;;;;;;27.87;11.90;;;2.10;99.90;;;;;;4897858;29;20037;-76
2022/03/03 09:45:25;;;;;;;24.67;12.37;;;2.10;99.90;;;;;;4897401;29;20088;-75
2022/03/03 09:47:54;;;;;;;21.30;11.37;;;2.40;99.90;;;;;;4896253;29;20028;-76
2022/03/03 09:50:22;;;;;;;27.57;12.20;;;2.40;99.90;;;;;;4897831;29;20028;-76
2022/03/03 09:52:47;;;;;;;20.63;10.90;;;2.50;99.90;;;;;;4896726;29;20040;-76
2022/03/03 09:55:16;;;;;;;22.63;12.33;;;2.70;99.90;;;;;;4896811;29;20028;-76
2022/03/03 09:57:42;;;;;;;28.43;11.77;;;2.70;99.90;;;;;;4896929;29;20036;-76
2022/03/03 10:00:11;;;;;;;20.83;11.93;;;2.70;99.90;;;;;;4896223;29;20114;-76
2022/03/03 10:03:16;;;;;;;25.53;12.33;;;2.70;99.90;;;;;;4897281;29;20039;-76
2022/03/03 10:05:49;;;;;;;22.60;11.73;;;2.80;99.90;;;;;;4821832;29;20102;-76
2022/03/03 10:08:23;;;;;;;25.37;12.03;;;2.90;99.90;;;;;;4806154;29;20392;-76
2022/03/03 10:11:00;;;;;;;23.33;12.00;;;3.00;99.90;;;;;;4821313;29;20089;-76
2022/03/03 10:13:42;;;;;;;21.37;11.53;;;3.00;99.90;;;;;;4821703;29;20034;-75
2022/03/03 10:16:08;;;;;;;23.35;12.38;;;2.90;99.90;;;;;;4821041;29;20684;-75
2022/03/03 10:18:34;;;;;;;26.77;13.07;;;2.90;99.90;;;;;;4821802;29;20203;-75
2022/03/03 10:21:02;;;;;;;23.33;12.37;;;3.00;99.90;;;;;;4821171;29;20061;-75
2022/03/03 10:23:36;;;;;;;27.37;13.23;;;3.00;99.90;;;;;;4821740;29;20046;-75
2022/03/03 10:26:06;;;;;;;28.87;13.93;;;3.00;99.90;;;;;;4821243;29;20057;-75
2022/03/03 10:28:34;;;;;;;23.87;12.97;;;3.10;99.90;;;;;;4821211;29;20050;-74
2022/03/03 10:31:07;;;;;;;26.40;12.40;;;3.20;99.90;;;;;;4821211;29;20050;-75
2022/03/03 10:33:37;;;;;;;26.10;13.40;;;3.30;99.90;;;;;;4821785;29;20034;-75
2022/03/03 10:36:22;;;;;;;25.37;11.90;;;3.30;99.90;;;;;;4847927;29;20033;-75
2022/03/03 10:38:53;;;;;;;27.10;13.33;;;3.30;99.90;;;;;;4896323;29;20128;-75
2022/03/03 10:41:29;;;;;;;24.95;12.90;;;3.30;99.90;;;;;;4880884;29;20168;-75
2022/03/03 10:43:55;;;;;;;26.77;13.67;;;3.40;99.90;;;;;;4880209;29;20128;-74
2022/03/03 10:46:21;;;;;;;26.40;12.13;;;3.40;99.90;;;;;;4896350;29;20116;-75
2022/03/03 10:48:46;;;;;;;23.73;12.73;;;3.50;99.90;;;;;;4896108;29;20482;-75
2022/03/03 10:51:16;;;;;;;26.40;12.50;;;3.60;99.90;;;;;;4896872;29;20036;-75
2022/03/03 10:53:42;;;;;;;23.10;12.57;;;3.60;99.90;;;;;;4897611;29;20028;-76
2022/03/03 10:56:12;;;;;;;25.23;12.90;;;3.60;99.90;;;;;;4895761;29;20033;-76
2022/03/03 10:58:57;;;;;;;24.07;12.50;;;3.70;99.90;;;;;;4897138;29;20458;-76
2022/03/03 11:01:32;;;;;;;25.17;13.10;;;4.00;99.90;;;;;;4898522;29;20036;-75
2022/03/03 11:03:59;;;;;;;23.13;12.30;;;4.00;99.50;;;;;;4899690;29;20088;-77
2022/03/03 11:06:30;;;;;;;23.27;12.80;;;4.10;99.90;;;;;;4901371;29;20049;-75
2022/03/03 11:08:59;;;;;;;27.37;13.10;;;4.10;99.90;;;;;;4899209;29;20033;-76
2022/03/03 11:11:25;;;;;;;24.53;13.03;;;4.20;99.70;;;;;;4899949;29;20037;-76
2022/03/03 11:13:52;;;;;;;28.27;13.47;;;4.30;99.60;;;;;;4899720;29;20029;-76
2022/03/03 11:16:25;;;;;;;27.93;12.70;;;4.50;99.90;;;;;;4899544;29;20024;-76
2022/03/03 11:18:51;;;;;;;24.17;12.67;;;4.50;99.20;;;;;;4901032;29;20035;-76
2022/03/03 11:21:18;;;;;;;25.47;13.13;;;4.50;98.50;;;;;;4899051;29;20044;-75
2022/03/03 11:23:57;;;;;;;24.73;12.93;;;4.60;97.90;;;;;;4884176;29;20033;-77
2022/03/03 11:26:26;;;;;;;25.50;13.80;;;4.70;97.70;;;;;;4899950;29;20056;-78
2022/03/03 11:29:12;;;;;;;25.90;14.00;;;4.70;97.40;;;;;;4900659;29;20080;-76
2022/03/03 11:31:40;;;;;;;22.83;12.53;;;4.80;97.50;;;;;;4902540;29;20457;-77
2022/03/03 11:34:23;;;;;;;27.07;13.67;;;5.00;97.20;;;;;;4908193;29;20028;-77
2022/03/03 11:37:17;;;;;;;23.23;12.37;;;5.10;96.40;;;;;;4895615;29;20076;-78
2022/03/03 11:39:46;;;;;;;27.37;13.47;;;5.10;96.10;;;;;;4920195;29;20401;-77
2022/03/03 11:42:20;;;;;;;26.53;13.10;;;5.20;96.50;;;;;;4921232;29;20658;-78
2022/03/03 11:44:47;;;;;;;23.77;12.33;;;5.30;96.60;;;;;;4921559;29;20032;-78
2022/03/03 11:47:45;;;;;;;29.67;13.43;;;5.40;95.40;;;;;;4902724;29;20596;-78
2022/03/03 11:50:17;;;;;;;23.00;12.63;;;5.70;95.30;;;;;;4917190;29;20048;-78
2022/03/03 11:52:45;;;;;;;26.30;13.13;;;5.70;95.00;;;;;;4902374;29;20032;-78
2022/03/03 11:55:37;;;;;;;27.00;13.53;;;5.60;95.20;;;;;;4901867;29;20037;-78
2022/03/03 11:58:13;;;;;;;25.37;13.23;;;5.80;96.40;;;;;;4910111;29;20055;-79
2022/03/03 12:00:59;;;;;;;27.87;14.10;;;5.80;94.80;;;;;;4899636;29;20092;-78
2022/03/03 12:03:26;;;;;;;27.63;13.10;;;6.00;94.50;;;;;;4904380;29;20477;-78
2022/03/03 12:06:13;;;;;;;29.13;14.17;;;6.10;92.90;;;;;;4918496;29;20052;-80
2022/03/03 12:08:42;;;;;;;25.93;13.27;;;6.20;93.90;;;;;;4918459;29;20091;-79
2022/03/03 12:11:17;;;;;;;25.70;13.13;;;6.20;94.30;;;;;;4919085;29;20119;-79
2022/03/03 12:13:50;;;;;;;30.40;13.37;;;6.20;94.20;;;;;;4917797;29;20032;-80
2022/03/03 12:16:25;;;;;;;27.67;13.70;;;6.30;95.30;;;;;;4918010;29;20043;-78
2022/03/03 12:19:00;;;;;;;26.97;13.73;;;6.40;94.90;;;;;;4903693;29;20474;-80
2022/03/03 12:21:34;;;;;;;26.13;13.97;;;6.60;93.60;;;;;;4887549;29;20028;-81
2022/03/03 12:24:17;;;;;;;24.43;12.93;;;6.70;92.40;;;;;;4919273;29;20024;-80
2022/03/03 12:26:54;;;;;;;25.50;13.20;;;6.90;92.10;;;;;;4919760;29;20052;-81
2022/03/03 12:29:48;;;;;;;27.37;13.70;;;7.10;91.00;;;;;;4901928;29;20056;-82
2022/03/03 12:32:32;;;;;;;26.70;13.77;;;7.40;90.20;;;;;;4901877;29;20032;-78
2022/03/03 12:35:01;;;;;;;24.40;12.50;;;7.80;87.60;;;;;;4901369;29;20028;-78
2022/03/03 12:37:28;;;;;;;28.03;13.73;;;8.10;84.40;;;;;;4898266;29;20025;-77
2022/03/03 12:40:00;;;;;;;26.10;12.60;;;8.40;83.00;;;;;;4906818;29;20500;-77